createdAt,value
2022-08-11T00:00:35.170Z,0.00
2022-08-11T00:01:35.151Z,0.00
2022-08-11T00:02:35.328Z,0.00
2022-08-11T00:03:43.318Z,0.00
2022-08-11T00:04:36.134Z,0.00
2022-08-11T00:05:35.135Z,0.00
2022-08-11T00:06:35.112Z,0.00
2022-08-11T00:07:35.118Z,0.00
2022-08-11T00:08:35.109Z,0.00
2022-08-11T00:09:39.716Z,0.00
2022-08-11T00:10:35.073Z,0.00
2022-08-11T00:11:35.049Z,0.00
2022-08-11T00:12:35.047Z,0.00
2022-08-11T00:13:35.049Z,0.00
2022-08-11T00:14:37.437Z,0.00
2022-08-11T00:15:35.032Z,0.00
2022-08-11T00:16:35.014Z,0.00
2022-08-11T00:17:34.995Z,0.00
2022-08-11T00:18:34.994Z,0.00
2022-08-11T00:20:12.272Z,0.00
2022-08-11T00:20:35.997Z,0.00
2022-08-11T00:22:03.827Z,0.00
2022-08-11T00:22:35.942Z,0.00
2022-08-11T00:23:34.928Z,0.00
2022-08-11T00:24:34.942Z,0.00
2022-08-11T00:25:35.938Z,0.00
2022-08-11T00:26:34.910Z,0.00
2022-08-11T00:27:34.927Z,0.00
2022-08-11T00:28:34.918Z,0.00
2022-08-11T00:29:34.882Z,0.00
2022-08-11T00:30:34.893Z,0.00
2022-08-11T00:31:34.881Z,0.00
2022-08-11T00:32:34.905Z,0.00
2022-08-11T00:33:44.502Z,0.00
2022-08-11T00:34:35.833Z,0.00
2022-08-11T00:35:51.871Z,0.00
2022-08-11T00:36:35.814Z,0.00
2022-08-11T00:37:34.812Z,0.00
2022-08-11T00:38:34.803Z,0.00
2022-08-11T00:39:34.792Z,0.00
2022-08-11T00:40:34.796Z,0.00
2022-08-11T00:41:34.780Z,0.00
2022-08-11T00:42:34.760Z,0.00
2022-08-11T00:43:34.754Z,0.00
2022-08-11T00:44:34.748Z,0.00
2022-08-11T00:45:34.768Z,0.00
2022-08-11T00:46:34.743Z,0.00
2022-08-11T00:47:34.715Z,0.00
2022-08-11T00:48:34.716Z,0.00
2022-08-11T00:49:34.679Z,0.00
2022-08-11T00:50:34.696Z,0.00
2022-08-11T00:52:02.188Z,0.00
2022-08-11T00:52:35.668Z,0.00
2022-08-11T00:53:34.648Z,0.00
2022-08-11T00:54:34.625Z,0.00
2022-08-11T00:55:34.645Z,0.00
2022-08-11T00:56:34.614Z,0.00
2022-08-11T00:57:37.235Z,0.00
2022-08-11T00:58:34.815Z,0.00
2022-08-11T00:59:36.100Z,0.00
2022-08-11T01:00:34.674Z,0.00
2022-08-11T01:01:34.581Z,0.00
2022-08-11T01:02:34.571Z,0.00
2022-08-11T01:03:34.551Z,0.00
2022-08-11T01:04:34.563Z,0.00
2022-08-11T01:05:34.556Z,0.00
2022-08-11T01:06:34.539Z,0.00
2022-08-11T01:08:02.766Z,0.00
2022-08-11T01:08:35.540Z,0.00
2022-08-11T01:09:34.504Z,0.00
2022-08-11T01:10:34.496Z,0.00
2022-08-11T01:11:34.479Z,0.00
2022-08-11T01:12:34.472Z,0.00
2022-08-11T01:13:34.448Z,0.00
2022-08-11T01:14:34.880Z,0.00
2022-08-11T01:15:34.456Z,0.00
2022-08-11T01:16:34.449Z,0.00
2022-08-11T01:17:34.415Z,0.00
2022-08-11T01:18:34.417Z,0.00
2022-08-11T01:19:34.408Z,0.00
2022-08-11T01:20:46.539Z,0.00
2022-08-11T01:21:35.386Z,0.00
2022-08-11T01:22:34.382Z,0.00
2022-08-11T01:23:34.367Z,0.00
2022-08-11T01:24:34.351Z,0.00
2022-08-11T01:25:34.355Z,0.00
2022-08-11T01:26:35.375Z,0.00
2022-08-11T01:27:34.344Z,0.00
2022-08-11T01:28:34.315Z,0.00
2022-08-11T01:29:34.305Z,0.00
2022-08-11T01:30:34.307Z,0.00
2022-08-11T01:31:34.298Z,0.00
2022-08-11T01:32:34.276Z,0.00
2022-08-11T01:33:34.270Z,0.00
2022-08-11T01:34:34.280Z,0.00
2022-08-11T01:35:34.244Z,0.00
2022-08-11T01:36:34.249Z,0.00
2022-08-11T01:37:34.241Z,0.00
2022-08-11T01:38:34.226Z,0.00
2022-08-11T01:39:34.323Z,0.00
2022-08-11T01:40:34.206Z,0.00
2022-08-11T01:41:34.203Z,0.00
2022-08-11T01:42:34.167Z,0.00
2022-08-11T01:43:34.186Z,0.00
2022-08-11T01:44:34.147Z,0.00
2022-08-11T01:45:34.160Z,0.00
2022-08-11T01:46:34.151Z,0.00
2022-08-11T01:47:34.131Z,0.00
2022-08-11T01:48:34.159Z,0.00
2022-08-11T01:50:08.646Z,0.00
2022-08-11T01:50:35.111Z,0.00
2022-08-11T01:51:34.118Z,0.00
2022-08-11T01:52:35.067Z,0.00
2022-08-11T01:53:35.084Z,0.00
2022-08-11T01:54:34.077Z,0.00
2022-08-11T01:55:34.078Z,0.00
2022-08-11T01:56:34.085Z,0.00
2022-08-11T01:57:34.040Z,0.00
2022-08-11T01:58:43.682Z,0.00
2022-08-11T01:59:35.013Z,0.00
2022-08-11T02:00:34.084Z,0.00
2022-08-11T02:01:33.991Z,0.00
2022-08-11T02:02:34.000Z,0.00
2022-08-11T02:03:33.990Z,0.00
2022-08-11T02:04:33.975Z,0.00
2022-08-11T02:05:33.990Z,0.00
2022-08-11T02:06:33.971Z,0.00
2022-08-11T02:07:33.943Z,0.00
2022-08-11T02:08:33.963Z,0.00
2022-08-11T02:09:33.933Z,0.00
2022-08-11T02:10:35.298Z,0.00
2022-08-11T02:11:35.820Z,0.00
2022-08-11T02:12:33.908Z,0.00
2022-08-11T02:13:36.752Z,0.00
2022-08-11T02:14:33.852Z,0.00
2022-08-11T02:15:33.872Z,0.00
2022-08-11T02:16:33.854Z,0.00
2022-08-11T02:17:33.878Z,0.00
2022-08-11T02:18:33.827Z,0.00
2022-08-11T02:19:33.831Z,0.00
2022-08-11T02:20:33.805Z,0.00
2022-08-11T02:21:33.817Z,0.00
2022-08-11T02:22:33.796Z,0.00
2022-08-11T02:24:05.578Z,0.00
2022-08-11T02:24:34.773Z,0.00
2022-08-11T02:25:33.767Z,0.00
2022-08-11T02:26:33.762Z,0.00
2022-08-11T02:27:33.744Z,0.00
2022-08-11T02:28:38.378Z,0.00
2022-08-11T02:29:35.723Z,0.00
2022-08-11T02:30:33.699Z,0.00
2022-08-11T02:32:23.850Z,0.00
2022-08-11T02:32:34.768Z,0.00
2022-08-11T02:33:33.697Z,0.00
2022-08-11T02:34:33.693Z,0.00
2022-08-11T02:35:33.660Z,0.00
2022-08-11T02:36:33.647Z,0.00
2022-08-11T02:37:34.655Z,0.00
2022-08-11T02:38:33.643Z,0.00
2022-08-11T02:39:33.703Z,0.00
2022-08-11T02:40:33.616Z,0.00
2022-08-11T02:41:33.633Z,0.00
2022-08-11T02:42:35.903Z,0.00
2022-08-11T02:43:33.586Z,0.00
2022-08-11T02:44:33.577Z,0.00
2022-08-11T02:45:33.563Z,0.00
2022-08-11T02:46:33.538Z,0.00
2022-08-11T02:47:33.545Z,0.00
2022-08-11T02:48:33.541Z,0.00
2022-08-11T02:49:33.516Z,0.00
2022-08-11T02:50:33.532Z,0.00
2022-08-11T02:51:33.491Z,0.00
2022-08-11T02:52:33.617Z,0.00
2022-08-11T02:53:33.519Z,0.00
2022-08-11T02:54:33.462Z,0.00
2022-08-11T02:55:55.747Z,0.00
2022-08-11T02:56:34.486Z,0.00
2022-08-11T02:57:33.442Z,0.00
2022-08-11T02:58:33.463Z,0.00
2022-08-11T02:59:33.432Z,0.00
2022-08-11T03:00:33.402Z,0.00
2022-08-11T03:01:33.460Z,0.00
2022-08-11T03:02:33.456Z,0.00
2022-08-11T03:03:33.389Z,0.00
2022-08-11T03:04:37.548Z,0.00
2022-08-11T03:05:33.378Z,0.00
2022-08-11T03:06:33.353Z,0.00
2022-08-11T03:07:33.336Z,0.00
2022-08-11T03:08:33.335Z,0.00
2022-08-11T03:09:33.324Z,0.00
2022-08-11T03:10:33.316Z,0.00
2022-08-11T03:11:33.320Z,0.00
2022-08-11T03:12:33.364Z,0.00
2022-08-11T03:13:33.288Z,0.00
2022-08-11T03:14:33.283Z,0.00
2022-08-11T03:15:33.256Z,0.00
2022-08-11T03:16:33.273Z,0.00
2022-08-11T03:17:33.243Z,0.00
2022-08-11T03:18:33.273Z,0.00
2022-08-11T03:19:33.217Z,0.00
2022-08-11T03:20:38.356Z,0.00
2022-08-11T03:21:52.274Z,0.00
2022-08-11T03:22:34.210Z,0.00
2022-08-11T03:23:33.204Z,0.00
2022-08-11T03:24:33.209Z,0.00
2022-08-11T03:25:33.154Z,0.00
2022-08-11T03:26:33.207Z,0.00
2022-08-11T03:27:33.152Z,0.00
2022-08-11T03:28:33.153Z,0.00
2022-08-11T03:29:33.112Z,4.00
2022-08-11T03:30:33.129Z,0.00
2022-08-11T03:31:33.112Z,0.00
2022-08-11T03:32:33.170Z,4.00
2022-08-11T03:33:33.098Z,4.00
2022-08-11T03:34:33.075Z,0.00
2022-08-11T03:35:33.077Z,4.00
2022-08-11T03:36:33.749Z,4.00
2022-08-11T03:37:34.039Z,4.00
2022-08-11T03:38:33.052Z,4.00
2022-08-11T03:39:33.121Z,4.00
2022-08-11T03:40:33.011Z,8.00
2022-08-11T03:42:03.648Z,8.00
2022-08-11T03:42:34.026Z,8.00
2022-08-11T03:43:32.978Z,12.00
2022-08-11T03:44:32.996Z,12.00
2022-08-11T03:45:36.260Z,16.00
2022-08-11T03:46:33.980Z,16.00
2022-08-11T03:47:32.928Z,20.00
2022-08-11T03:48:32.923Z,24.00
2022-08-11T03:49:32.935Z,28.00
2022-08-11T03:50:32.921Z,28.00
2022-08-11T03:51:45.042Z,32.00
2022-08-11T03:52:33.941Z,36.00
2022-08-11T03:53:32.868Z,44.00
2022-08-11T03:54:32.893Z,48.00
2022-08-11T03:55:32.871Z,56.00
2022-08-11T03:56:32.870Z,56.00
2022-08-11T03:57:32.850Z,64.00
2022-08-11T03:58:33.621Z,76.00
2022-08-11T03:59:32.827Z,80.00
2022-08-11T04:00:32.826Z,92.00
2022-08-11T04:01:32.895Z,96.00
2022-08-11T04:02:32.882Z,108.00
2022-08-11T04:03:32.787Z,116.00
2022-08-11T04:04:32.762Z,124.00
2022-08-11T04:05:32.774Z,136.00
2022-08-11T04:06:32.757Z,144.00
2022-08-11T04:07:32.798Z,156.00
2022-08-11T04:08:34.287Z,168.00
2022-08-11T04:09:32.702Z,180.00
2022-08-11T04:10:32.710Z,192.00
2022-08-11T04:11:32.705Z,204.00
2022-08-11T04:12:35.842Z,224.00
2022-08-11T04:13:32.653Z,236.00
2022-08-11T04:14:32.677Z,248.00
2022-08-11T04:15:32.674Z,264.00
2022-08-11T04:16:32.693Z,280.00
2022-08-11T04:17:32.648Z,292.00
2022-08-11T04:18:32.626Z,312.00
2022-08-11T04:19:32.627Z,324.00
2022-08-11T04:20:32.619Z,340.00
2022-08-11T04:21:32.584Z,360.00
2022-08-11T04:22:32.624Z,380.00
2022-08-11T04:24:36.797Z,396.00
2022-08-11T04:24:37.895Z,412.00
2022-08-11T04:25:33.543Z,428.00
2022-08-11T04:26:34.339Z,448.00
2022-08-11T04:27:37.003Z,468.00
2022-08-11T04:28:33.520Z,484.00
2022-08-11T04:29:36.297Z,504.00
2022-08-11T04:30:33.503Z,524.00
2022-08-11T04:31:51.830Z,540.00
2022-08-11T04:32:33.509Z,560.00
2022-08-11T04:33:34.394Z,580.00
2022-08-11T04:34:32.467Z,600.00
2022-08-11T04:35:33.512Z,624.00
2022-08-11T04:36:32.482Z,644.00
2022-08-11T04:37:32.473Z,668.00
2022-08-11T04:38:32.499Z,692.00
2022-08-11T04:39:32.522Z,716.00
2022-08-11T04:40:32.414Z,740.00
2022-08-11T04:41:33.132Z,764.00
2022-08-11T04:42:32.599Z,788.00
2022-08-11T04:43:32.400Z,816.00
2022-08-11T04:44:32.387Z,848.00
2022-08-11T04:45:32.378Z,876.00
2022-08-11T04:46:32.384Z,908.00
2022-08-11T04:47:32.344Z,932.00
2022-08-11T04:48:33.327Z,964.00
2022-08-11T04:49:33.716Z,988.00
2022-08-11T04:50:32.307Z,1020.00
2022-08-11T04:51:32.323Z,1048.00
2022-08-11T04:52:37.663Z,1076.00
2022-08-11T04:53:33.315Z,1104.00
2022-08-11T04:54:32.229Z,1132.00
2022-08-11T04:55:32.236Z,1164.00
2022-08-11T04:56:32.247Z,1192.00
2022-08-11T04:57:32.252Z,1228.00
2022-08-11T04:58:32.213Z,1260.00
2022-08-11T04:59:32.188Z,1292.00
2022-08-11T05:00:32.221Z,1324.00
2022-08-11T05:01:36.650Z,1360.00
2022-08-11T05:02:34.191Z,1396.00
2022-08-11T05:03:32.177Z,1432.00
2022-08-11T05:04:32.191Z,1468.00
2022-08-11T05:05:32.154Z,1500.00
2022-08-11T05:06:33.152Z,1536.00
2022-08-11T05:07:32.158Z,1576.00
2022-08-11T05:08:32.122Z,1612.00
2022-08-11T05:09:32.153Z,1644.00
2022-08-11T05:10:32.058Z,1676.00
2022-08-11T05:11:32.083Z,1712.00
2022-08-11T05:12:32.112Z,1752.00
2022-08-11T05:13:32.056Z,1796.00
2022-08-11T05:14:32.069Z,1836.00
2022-08-11T05:15:32.046Z,1876.00
2022-08-11T05:16:33.027Z,1912.00
2022-08-11T05:17:32.063Z,1956.00
2022-08-11T05:18:31.998Z,2000.00
2022-08-11T05:19:32.245Z,2048.00
2022-08-11T05:20:33.737Z,2092.00
2022-08-11T05:21:44.802Z,2132.00
2022-08-11T05:22:33.041Z,2172.00
2022-08-11T05:23:31.962Z,2208.00
2022-08-11T05:24:32.018Z,2252.00
2022-08-11T05:26:43.242Z,2300.00
2022-08-11T05:26:47.501Z,2348.00
2022-08-11T05:27:32.934Z,2392.00
2022-08-11T05:28:31.940Z,2432.00
2022-08-11T05:29:31.924Z,2472.00
2022-08-11T05:30:34.554Z,2512.00
2022-08-11T05:31:31.894Z,2560.00
2022-08-11T05:32:33.376Z,2604.00
2022-08-11T05:33:31.876Z,2656.00
2022-08-11T05:34:31.909Z,2696.00
2022-08-11T05:36:01.244Z,2736.00
2022-08-11T05:36:32.856Z,2780.00
2022-08-11T05:37:31.832Z,2816.00
2022-08-11T05:38:31.806Z,2856.00
2022-08-11T05:39:33.730Z,2904.00
2022-08-11T05:40:32.839Z,2944.00
2022-08-11T05:41:31.768Z,2988.00
2022-08-11T05:42:31.879Z,3028.00
2022-08-11T05:43:31.834Z,3076.00
2022-08-11T05:44:31.764Z,3124.00
2022-08-11T05:45:58.192Z,3156.00
2022-08-11T05:46:32.790Z,3200.00
2022-08-11T05:47:31.729Z,3248.00
2022-08-11T05:48:31.694Z,3300.00
2022-08-11T05:49:31.811Z,3340.00
2022-08-11T05:50:33.149Z,3388.00
2022-08-11T05:51:31.674Z,3424.00
2022-08-11T05:52:32.188Z,3468.00
2022-08-11T05:53:31.661Z,3504.00
2022-08-11T05:54:32.658Z,3548.00
2022-08-11T05:55:31.623Z,3588.00
2022-08-11T05:56:31.629Z,3628.00
2022-08-11T05:57:49.953Z,3668.00
2022-08-11T05:58:31.588Z,3700.00
2022-08-11T05:59:31.575Z,3732.00
2022-08-11T06:00:47.653Z,3748.00
2022-08-11T06:01:31.653Z,3792.00
2022-08-11T06:02:31.591Z,3864.00
2022-08-11T06:03:31.551Z,3900.00
2022-08-11T06:04:31.548Z,3936.00
2022-08-11T06:05:31.527Z,3972.00
2022-08-11T06:06:32.520Z,4008.00
2022-08-11T06:07:48.739Z,4040.00
2022-08-11T06:08:32.495Z,4076.00
2022-08-11T06:09:31.482Z,4112.00
2022-08-11T06:10:31.477Z,4096.00
2022-08-11T06:11:43.616Z,4184.00
2022-08-11T06:12:32.534Z,4212.00
2022-08-11T06:13:31.441Z,4232.00
2022-08-11T06:14:31.451Z,4268.00
2022-08-11T06:15:31.431Z,4292.00
2022-08-11T06:16:31.424Z,4344.00
2022-08-11T06:17:39.224Z,4388.00
2022-08-11T06:18:32.402Z,4420.00
2022-08-11T06:19:31.380Z,4452.00
2022-08-11T06:20:31.357Z,4480.00
2022-08-11T06:21:31.385Z,4512.00
2022-08-11T06:22:31.340Z,4560.00
2022-08-11T06:23:31.321Z,4584.00
2022-08-11T06:24:31.310Z,4624.00
2022-08-11T06:25:31.318Z,4656.00
2022-08-11T06:26:31.275Z,4692.00
2022-08-11T06:27:31.303Z,4724.00
2022-08-11T06:28:31.280Z,4760.00
2022-08-11T06:29:37.638Z,4792.00
2022-08-11T06:30:32.263Z,4828.00
2022-08-11T06:31:31.260Z,4868.00
2022-08-11T06:32:31.262Z,4900.00
2022-08-11T06:33:31.236Z,4932.00
2022-08-11T06:34:31.226Z,4964.00
2022-08-11T06:35:31.207Z,4984.00
2022-08-11T06:36:31.184Z,5012.00
2022-08-11T06:37:34.496Z,5048.00
2022-08-11T06:38:33.193Z,5072.00
2022-08-11T06:39:31.197Z,5096.00
2022-08-11T06:40:31.166Z,5128.00
2022-08-11T06:41:31.151Z,5148.00
2022-08-11T06:42:31.132Z,5164.00
2022-08-11T06:43:31.145Z,5200.00
2022-08-11T06:44:31.120Z,5220.00
2022-08-11T06:45:31.105Z,5248.00
2022-08-11T06:46:31.100Z,5264.00
2022-08-11T06:47:31.074Z,5296.00
2022-08-11T06:48:31.089Z,5324.00
2022-08-11T06:49:31.105Z,5348.00
2022-08-11T06:50:31.063Z,5368.00
2022-08-11T06:51:32.584Z,5388.00
2022-08-11T06:52:35.931Z,5408.00
2022-08-11T06:53:32.037Z,5420.00
2022-08-11T06:54:31.011Z,5440.00
2022-08-11T06:55:57.894Z,5456.00
2022-08-11T06:56:31.997Z,5464.00
2022-08-11T06:57:31.312Z,5476.00
2022-08-11T06:58:31.006Z,5492.00
2022-08-11T06:59:31.001Z,5508.00
2022-08-11T07:00:32.960Z,5532.00
2022-08-11T07:01:30.988Z,5544.00
2022-08-11T07:02:31.376Z,5556.00
2022-08-11T07:03:31.936Z,5572.00
2022-08-11T07:04:30.928Z,5588.00
2022-08-11T07:05:30.918Z,5604.00
2022-08-11T07:06:41.658Z,5620.00
2022-08-11T07:07:31.884Z,5636.00
2022-08-11T07:08:34.175Z,5644.00
2022-08-11T07:09:30.866Z,5668.00
2022-08-11T07:10:30.858Z,5676.00
2022-08-11T07:11:30.841Z,5696.00
2022-08-11T07:12:30.835Z,5708.00
2022-08-11T07:13:44.075Z,5712.00
2022-08-11T07:14:36.319Z,5724.00
2022-08-11T07:16:09.107Z,5736.00
2022-08-11T07:16:31.792Z,5760.00
2022-08-11T07:17:30.796Z,5776.00
2022-08-11T07:18:30.799Z,5784.00
2022-08-11T07:19:30.786Z,5804.00
2022-08-11T07:20:30.777Z,5824.00
2022-08-11T07:22:00.132Z,5848.00
2022-08-11T07:22:31.765Z,5860.00
2022-08-11T07:23:30.763Z,5868.00
2022-08-11T07:24:59.759Z,5876.00
2022-08-11T07:25:31.732Z,5832.00
2022-08-11T07:26:30.695Z,5892.00
2022-08-11T07:27:35.387Z,5896.00
2022-08-11T07:28:32.710Z,5860.00
2022-08-11T07:29:30.723Z,5920.00
2022-08-11T07:30:30.685Z,5932.00
2022-08-11T07:31:30.680Z,5948.00
2022-08-11T07:32:30.661Z,5956.00
2022-08-11T07:34:05.218Z,5972.00
2022-08-11T07:34:31.641Z,5988.00
2022-08-11T07:35:30.685Z,5992.00
2022-08-11T07:36:30.626Z,6000.00
2022-08-11T07:37:30.610Z,6016.00
2022-08-11T07:38:30.643Z,6028.00
2022-08-11T07:39:30.636Z,6056.00
2022-08-11T07:40:30.612Z,6028.00
2022-08-11T07:41:30.582Z,6068.00
2022-08-11T07:42:30.596Z,6076.00
2022-08-11T07:43:30.574Z,6096.00
2022-08-11T07:44:34.692Z,6112.00
2022-08-11T07:45:31.535Z,6124.00
2022-08-11T07:46:30.524Z,6132.00
2022-08-11T07:47:30.525Z,6144.00
2022-08-11T07:48:30.522Z,6148.00
2022-08-11T07:49:30.522Z,6152.00
2022-08-11T07:50:31.074Z,6172.00
2022-08-11T07:51:30.477Z,6180.00
2022-08-11T07:52:30.490Z,6200.00
2022-08-11T07:53:30.449Z,6212.00
2022-08-11T07:54:33.450Z,6224.00
2022-08-11T07:55:48.966Z,6188.00
2022-08-11T07:56:42.985Z,6248.00
2022-08-11T07:57:42.221Z,6256.00
2022-08-11T07:58:31.682Z,6260.00
2022-08-11T08:00:00.148Z,6272.00
2022-08-11T08:00:31.384Z,6288.00
2022-08-11T08:01:30.458Z,6308.00
2022-08-11T08:02:30.371Z,6320.00
2022-08-11T08:03:30.385Z,6336.00
2022-08-11T08:04:30.378Z,6356.00
2022-08-11T08:05:30.362Z,6376.00
2022-08-11T08:06:36.565Z,6388.00
2022-08-11T08:07:31.428Z,6392.00
2022-08-11T08:08:30.339Z,6408.00
2022-08-11T08:09:30.342Z,6420.00
2022-08-11T08:10:30.308Z,6420.00
2022-08-11T08:11:30.302Z,6444.00
2022-08-11T08:12:30.376Z,6440.00
2022-08-11T08:13:30.302Z,6452.00
2022-08-11T08:14:30.293Z,6460.00
2022-08-11T08:15:30.250Z,6468.00
2022-08-11T08:16:30.248Z,6472.00
2022-08-11T08:17:30.274Z,6484.00
2022-08-11T08:18:30.216Z,6480.00
2022-08-11T08:19:30.225Z,6488.00
2022-08-11T08:20:30.199Z,6424.00
2022-08-11T08:21:30.191Z,6512.00
2022-08-11T08:22:38.347Z,6520.00
2022-08-11T08:23:31.163Z,6428.00
2022-08-11T08:24:30.167Z,6528.00
2022-08-11T08:25:30.179Z,6536.00
2022-08-11T08:26:30.151Z,6540.00
2022-08-11T08:27:30.157Z,6544.00
2022-08-11T08:28:32.507Z,6556.00
2022-08-11T08:29:31.135Z,6560.00
2022-08-11T08:30:30.116Z,6568.00
2022-08-11T08:31:30.138Z,6580.00
2022-08-11T08:32:30.141Z,6576.00
2022-08-11T08:33:30.082Z,6592.00
2022-08-11T08:34:30.995Z,6588.00
2022-08-11T08:35:32.866Z,6592.00
2022-08-11T08:36:31.062Z,6592.00
2022-08-11T08:37:47.270Z,6560.00
2022-08-11T08:38:31.031Z,6504.00
2022-08-11T08:39:30.071Z,6588.00
2022-08-11T08:40:30.039Z,6596.00
2022-08-11T08:41:30.024Z,6600.00
2022-08-11T08:42:30.018Z,6608.00
2022-08-11T08:43:32.554Z,6620.00
2022-08-11T08:44:40.934Z,6616.00
2022-08-11T08:45:31.989Z,6616.00
2022-08-11T08:46:30.962Z,6616.00
2022-08-11T08:47:41.646Z,6624.00
2022-08-11T08:48:30.955Z,6636.00
2022-08-11T08:49:29.949Z,6632.00
2022-08-11T08:50:29.957Z,6636.00
2022-08-11T08:51:54.915Z,6644.00
2022-08-11T08:52:35.923Z,6648.00
2022-08-11T08:53:30.947Z,6680.00
2022-08-11T08:54:29.887Z,6688.00
2022-08-11T08:55:29.886Z,6700.00
2022-08-11T08:56:29.861Z,6684.00
2022-08-11T08:57:29.852Z,6692.00
2022-08-11T08:58:29.853Z,6716.00
2022-08-11T08:59:47.909Z,6716.00
2022-08-11T09:00:30.835Z,6728.00
2022-08-11T09:01:29.880Z,6744.00
2022-08-11T09:02:34.122Z,6744.00
2022-08-11T09:04:05.151Z,6748.00
2022-08-11T09:04:31.816Z,6752.00
2022-08-11T09:05:29.786Z,6752.00
2022-08-11T09:06:29.764Z,6740.00
2022-08-11T09:07:38.247Z,6744.00
2022-08-11T09:08:31.745Z,6744.00
2022-08-11T09:09:29.755Z,6748.00
2022-08-11T09:10:29.736Z,6760.00
2022-08-11T09:11:29.718Z,6764.00
2022-08-11T09:12:53.237Z,6764.00
2022-08-11T09:13:30.700Z,6768.00
2022-08-11T09:14:29.711Z,6780.00
2022-08-11T09:15:29.701Z,6784.00
2022-08-11T09:16:29.670Z,6768.00
2022-08-11T09:17:29.725Z,6772.00
2022-08-11T09:18:33.638Z,6788.00
2022-08-11T09:19:30.666Z,6820.00
2022-08-11T09:20:29.634Z,6824.00
2022-08-11T09:21:48.853Z,6832.00
2022-08-11T09:22:30.607Z,6836.00
2022-08-11T09:24:31.612Z,6852.00
2022-08-11T09:25:29.592Z,6884.00
2022-08-11T09:26:30.510Z,6908.00
2022-08-11T09:27:29.640Z,6916.00
2022-08-11T09:28:29.590Z,6920.00
2022-08-11T09:29:29.647Z,6940.00
2022-08-11T09:30:29.559Z,6980.00
2022-08-11T09:31:29.591Z,7024.00
2022-08-11T09:32:29.515Z,7052.00
2022-08-11T09:33:29.525Z,7072.00
2022-08-11T09:34:29.529Z,7036.00
2022-08-11T09:35:29.528Z,7052.00
2022-08-11T09:36:29.486Z,7052.00
2022-08-11T09:37:54.501Z,7052.00
2022-08-11T09:38:30.476Z,7032.00
2022-08-11T09:39:31.066Z,7032.00
2022-08-11T09:40:30.489Z,6968.00
2022-08-11T09:42:00.806Z,6980.00
2022-08-11T09:42:30.436Z,6988.00
2022-08-11T09:43:29.439Z,7088.00
2022-08-11T09:44:29.402Z,7092.00
2022-08-11T09:45:29.410Z,7100.00
2022-08-11T09:46:30.426Z,7124.00
2022-08-11T09:47:29.467Z,7140.00
2022-08-11T09:48:29.377Z,7136.00
2022-08-11T09:49:29.375Z,7108.00
2022-08-11T09:50:29.372Z,7100.00
2022-08-11T09:51:29.373Z,7044.00
2022-08-11T09:52:29.348Z,7056.00
2022-08-11T09:53:36.434Z,7076.00
2022-08-11T09:54:30.343Z,7112.00
2022-08-11T09:55:29.338Z,6984.00
2022-08-11T09:56:29.317Z,6956.00
2022-08-11T09:57:29.306Z,7044.00
2022-08-11T09:58:35.173Z,7132.00
2022-08-11T09:59:30.287Z,7124.00
2022-08-11T10:00:29.305Z,7044.00
2022-08-11T10:01:29.354Z,7132.00
2022-08-11T10:02:29.244Z,7148.00
2022-08-11T10:03:29.254Z,7100.00
2022-08-11T10:04:29.226Z,7112.00
2022-08-11T10:05:29.224Z,7108.00
2022-08-11T10:06:33.069Z,7072.00
2022-08-11T10:07:31.203Z,7084.00
2022-08-11T10:08:29.224Z,7096.00
2022-08-11T10:09:29.211Z,7056.00
2022-08-11T10:10:29.197Z,7032.00
2022-08-11T10:11:29.169Z,7060.00
2022-08-11T10:12:29.169Z,7068.00
2022-08-11T10:14:30.277Z,7048.00
2022-08-11T10:14:33.796Z,7036.00
2022-08-11T10:15:29.149Z,7036.00
2022-08-11T10:16:29.143Z,7040.00
2022-08-11T10:17:29.138Z,7048.00
2022-08-11T10:18:29.104Z,7044.00
2022-08-11T10:19:29.073Z,7084.00
2022-08-11T10:20:29.089Z,7104.00
2022-08-11T10:21:29.098Z,7100.00
2022-08-11T10:22:29.140Z,7112.00
2022-08-11T10:23:29.140Z,7124.00
2022-08-11T10:24:29.753Z,7140.00
2022-08-11T10:25:29.735Z,7116.00
2022-08-11T10:26:29.256Z,7144.00
2022-08-11T10:27:29.156Z,7144.00
2022-08-11T10:28:44.700Z,7120.00
2022-08-11T10:29:36.809Z,7120.00
2022-08-11T10:30:30.036Z,7168.00
2022-08-11T10:31:30.556Z,7152.00
2022-08-11T10:32:31.587Z,7160.00
2022-08-11T10:33:37.691Z,7140.00
2022-08-11T10:34:30.022Z,7108.00
2022-08-11T10:35:28.956Z,7092.00
2022-08-11T10:36:28.946Z,7068.00
2022-08-11T10:38:15.965Z,7084.00
2022-08-11T10:38:29.938Z,7112.00
2022-08-11T10:39:28.982Z,7060.00
2022-08-11T10:40:28.913Z,7044.00
2022-08-11T10:41:28.902Z,7072.00
2022-08-11T10:42:41.676Z,7064.00
2022-08-11T10:44:03.395Z,7072.00
2022-08-11T10:44:29.868Z,7060.00
2022-08-11T10:45:28.901Z,7032.00
2022-08-11T10:46:30.437Z,7016.00
2022-08-11T10:47:28.903Z,7032.00
2022-08-11T10:48:28.837Z,7000.00
2022-08-11T10:49:28.810Z,7000.00
2022-08-11T10:50:28.813Z,6988.00
2022-08-11T10:51:49.906Z,6964.00
2022-08-11T10:52:29.827Z,6948.00
2022-08-11T10:53:28.775Z,6908.00
2022-08-11T10:54:28.778Z,6880.00
2022-08-11T10:55:28.792Z,6868.00
2022-08-11T10:56:28.767Z,6848.00
2022-08-11T10:57:28.945Z,6572.00
2022-08-11T10:58:28.795Z,6436.00
2022-08-11T10:59:28.755Z,6448.00
2022-08-11T11:00:28.784Z,6436.00
2022-08-11T11:01:28.823Z,6424.00
2022-08-11T11:02:28.714Z,6420.00
2022-08-11T11:03:28.705Z,6412.00
2022-08-11T11:04:28.699Z,6388.00
2022-08-11T11:05:28.698Z,6348.00
2022-08-11T11:06:30.060Z,6348.00
2022-08-11T11:07:29.738Z,6364.00
2022-08-11T11:08:28.690Z,6356.00
2022-08-11T11:09:29.631Z,6320.00
2022-08-11T11:10:28.644Z,6336.00
2022-08-11T11:11:28.674Z,6356.00
2022-08-11T11:12:28.709Z,6428.00
2022-08-11T11:13:28.595Z,6456.00
2022-08-11T11:14:28.636Z,6436.00
2022-08-11T11:15:28.591Z,6336.00
2022-08-11T11:16:28.615Z,6308.00
2022-08-11T11:17:28.602Z,6288.00
2022-08-11T11:18:28.651Z,6296.00
2022-08-11T11:19:28.550Z,6288.00
2022-08-11T11:20:35.791Z,6276.00
2022-08-11T11:21:29.592Z,6248.00
2022-08-11T11:22:28.548Z,6232.00
2022-08-11T11:23:28.562Z,6236.00
2022-08-11T11:24:28.529Z,6224.00
2022-08-11T11:25:28.497Z,6188.00
2022-08-11T11:26:28.553Z,6144.00
2022-08-11T11:27:28.541Z,6128.00
2022-08-11T11:28:28.476Z,6116.00
2022-08-11T11:29:28.492Z,6104.00
2022-08-11T11:30:28.432Z,6516.00
2022-08-11T11:31:28.425Z,6500.00
2022-08-11T11:32:28.414Z,6508.00
2022-08-11T11:33:28.412Z,6488.00
2022-08-11T11:34:28.403Z,6512.00
2022-08-11T11:35:28.417Z,6528.00
2022-08-11T11:36:28.396Z,6496.00
2022-08-11T11:37:28.396Z,6512.00
2022-08-11T11:38:28.370Z,6536.00
2022-08-11T11:39:28.389Z,6536.00
2022-08-11T11:40:31.482Z,6520.00
2022-08-11T11:41:28.359Z,6584.00
2022-08-11T11:42:28.330Z,6604.00
2022-08-11T11:43:28.322Z,6624.00
2022-08-11T11:44:28.322Z,6512.00
2022-08-11T11:45:28.377Z,6480.00
2022-08-11T11:46:30.194Z,6504.00
2022-08-11T11:47:29.289Z,6540.00
2022-08-11T11:48:28.292Z,6576.00
2022-08-11T11:49:28.263Z,6532.00
2022-08-11T11:50:32.967Z,6544.00
2022-08-11T11:51:28.264Z,6508.00
2022-08-11T11:52:28.239Z,6476.00
2022-08-11T11:53:28.255Z,6392.00
2022-08-11T11:54:28.235Z,6456.00
2022-08-11T11:55:28.212Z,6420.00
2022-08-11T11:56:28.237Z,6264.00
2022-08-11T11:57:28.210Z,6364.00
2022-08-11T11:58:28.333Z,6352.00
2022-08-11T11:59:28.179Z,6308.00
2022-08-11T12:00:32.877Z,6388.00
2022-08-11T12:01:29.186Z,6392.00
2022-08-11T12:02:28.172Z,6356.00
2022-08-11T12:03:28.190Z,6348.00
2022-08-11T12:04:28.123Z,6384.00
2022-08-11T12:05:28.143Z,6396.00
2022-08-11T12:06:28.148Z,6368.00
2022-08-11T12:07:28.118Z,6388.00
2022-08-11T12:08:28.112Z,6396.00
2022-08-11T12:09:28.110Z,6376.00
2022-08-11T12:10:28.080Z,6308.00
2022-08-11T12:11:28.098Z,6100.00
2022-08-11T12:12:28.050Z,6112.00
2022-08-11T12:13:28.053Z,6220.00
2022-08-11T12:14:28.148Z,6292.00
2022-08-11T12:16:03.572Z,6308.00
2022-08-11T12:16:35.015Z,6316.00
2022-08-11T12:17:29.090Z,6336.00
2022-08-11T12:18:28.043Z,6380.00
2022-08-11T12:19:28.008Z,6364.00
2022-08-11T12:20:31.934Z,6276.00
2022-08-11T12:21:28.991Z,6252.00
2022-08-11T12:22:27.993Z,6180.00
2022-08-11T12:23:27.968Z,6064.00
2022-08-11T12:24:28.479Z,6112.00
2022-08-11T12:25:27.938Z,6304.00
2022-08-11T12:26:27.963Z,6304.00
2022-08-11T12:27:29.062Z,6420.00
2022-08-11T12:28:29.073Z,6452.00
2022-08-11T12:29:27.928Z,6380.00